Time;durP1;ratioP1;P1;durP2;ratioP2;P2;SDS_P1;SDS_P2;PMS_P1;PMS_P2;Temp;Humidity;BMP_temperature;BMP_pressure;BME280_temperature;BME280_humidity;BME280_pressure;Samples;Min_cycle;Max_cycle;Signal;HPM_P1;HPM_P2
2022/03/14 00:02:01;;;;;;;22.97;16.03;;;5.60;1.00;;;;;;6303359;28;20632;-53
2022/03/14 00:05:04;;;;;;;20.53;15.87;;;5.90;1.00;;;;;;6290794;28;20290;-55
2022/03/14 00:08:09;;;;;;;23.20;16.43;;;5.40;1.00;;;;;;6303945;28;20623;-54
2022/03/14 00:11:12;;;;;;;20.90;14.83;;;5.40;1.00;;;;;;6298691;28;20286;-55
2022/03/14 00:14:14;;;;;;;20.53;15.43;;;5.40;1.00;;;;;;6297595;28;20263;-55
2022/03/14 00:17:20;;;;;;;23.50;15.07;;;5.80;1.00;;;;;;6308184;28;20898;-56
2022/03/14 00:20:24;;;;;;;18.83;14.93;;;5.40;1.00;;;;;;6302779;28;20235;-55
2022/03/14 00:23:28;;;;;;;21.30;15.83;;;5.50;1.00;;;;;;6294838;28;20371;-53
2022/03/14 00:26:31;;;;;;;20.83;14.97;;;5.30;1.00;;;;;;6303573;28;20278;-55
2022/03/14 00:29:33;;;;;;;21.87;15.37;;;5.30;1.00;;;;;;6300517;28;20805;-55
2022/03/14 00:32:36;;;;;;;21.03;15.07;;;5.00;1.00;;;;;;6302577;28;20228;-54
2022/03/14 00:35:39;;;;;;;23.90;16.03;;;5.30;1.00;;;;;;6295587;28;20293;-54
2022/03/14 00:38:43;;;;;;;17.53;14.47;;;5.10;1.00;;;;;;6304538;28;20312;-55
2022/03/14 00:41:46;;;;;;;23.73;15.13;;;5.10;1.00;;;;;;6309646;28;20240;-54
2022/03/14 00:44:49;;;;;;;22.20;15.73;;;5.00;1.00;;;;;;6294179;28;20452;-55
2022/03/14 00:47:52;;;;;;;19.13;15.57;;;4.90;1.00;;;;;;6290049;28;20469;-55
2022/03/14 00:50:55;;;;;;;25.30;16.20;;;5.30;1.00;;;;;;6310522;28;20249;-54
2022/03/14 00:53:59;;;;;;;25.97;16.13;;;5.00;1.00;;;;;;6301412;28;20796;-55
2022/03/14 00:57:02;;;;;;;20.63;16.27;;;5.00;1.00;;;;;;6298123;28;20332;-55
2022/03/14 01:00:06;;;;;;;23.27;15.83;;;4.90;1.00;;;;;;6313025;28;20809;-56
2022/03/14 01:03:09;;;;;;;21.83;16.30;;;4.80;1.00;;;;;;6312669;28;20344;-54
2022/03/14 01:06:12;;;;;;;22.93;15.23;;;4.90;1.00;;;;;;6307949;28;20236;-53
2022/03/14 01:09:16;;;;;;;23.73;16.40;;;4.80;1.00;;;;;;6306244;28;20481;-55
2022/03/14 01:12:19;;;;;;;25.30;16.47;;;5.00;1.00;;;;;;6294981;28;20746;-55
2022/03/14 01:15:21;;;;;;;24.23;15.43;;;4.90;1.00;;;;;;6306310;28;20539;-55
2022/03/14 01:18:25;;;;;;;25.07;16.43;;;4.80;1.00;;;;;;6291682;28;20255;-58
2022/03/14 01:21:30;;;;;;;22.30;16.13;;;4.90;1.00;;;;;;6301793;28;20788;-55
2022/03/14 01:24:37;;;;;;;22.80;16.00;;;4.80;1.00;;;;;;6303530;28;20323;-54
2022/03/14 01:27:40;;;;;;;22.47;15.90;;;4.80;1.00;;;;;;6303264;28;20438;-55
2022/03/14 01:30:44;;;;;;;24.63;17.07;;;4.80;1.00;;;;;;6302829;28;20524;-53
2022/03/14 01:33:47;;;;;;;24.77;16.63;;;4.60;1.00;;;;;;6299587;28;20260;-55
2022/03/14 01:36:50;;;;;;;20.13;15.53;;;4.50;1.00;;;;;;6294394;28;20327;-55
2022/03/14 01:39:54;;;;;;;21.17;16.33;;;4.70;1.00;;;;;;6308072;28;20234;-54
2022/03/14 01:42:57;;;;;;;23.30;15.53;;;4.90;1.00;;;;;;6302090;28;20235;-57
2022/03/14 01:46:00;;;;;;;24.80;15.83;;;4.60;1.00;;;;;;6301584;28;20236;-54
2022/03/14 01:49:03;;;;;;;27.57;17.40;;;4.50;1.00;;;;;;6310382;28;20228;-54
2022/03/14 01:52:07;;;;;;;24.27;15.30;;;4.50;1.00;;;;;;6299600;28;20286;-54
2022/03/14 01:55:13;;;;;;;23.57;15.60;;;4.50;1.00;;;;;;6297201;28;20751;-55
2022/03/14 01:58:16;;;;;;;20.07;15.07;;;4.50;1.00;;;;;;6300289;28;20241;-55
2022/03/14 02:01:20;;;;;;;30.57;16.50;;;4.30;1.00;;;;;;6308517;28;20373;-54
2022/03/14 02:04:23;;;;;;;21.43;16.13;;;4.50;1.00;;;;;;6293740;28;20324;-55
2022/03/14 02:07:26;;;;;;;21.90;15.40;;;4.40;1.00;;;;;;6292949;28;20529;-54
2022/03/14 02:10:31;;;;;;;22.37;16.93;;;4.50;1.00;;;;;;6307729;28;20232;-55
2022/03/14 02:13:33;;;;;;;23.10;15.93;;;4.50;1.00;;;;;;6301997;28;20743;-54
2022/03/14 02:16:36;;;;;;;23.77;16.63;;;4.30;1.00;;;;;;6295939;28;20237;-54
2022/03/14 02:19:40;;;;;;;22.83;15.70;;;4.10;1.00;;;;;;6299598;28;20686;-53
2022/03/14 02:22:44;;;;;;;26.87;17.07;;;4.40;1.00;;;;;;6308102;28;20309;-54
2022/03/14 02:25:48;;;;;;;23.67;17.07;;;4.40;1.00;;;;;;6301059;28;20714;-54
2022/03/14 02:28:51;;;;;;;26.87;16.13;;;4.30;1.00;;;;;;6296945;28;20232;-54
2022/03/14 02:31:54;;;;;;;23.77;15.83;;;4.40;1.00;;;;;;6307591;28;20301;-53
2022/03/14 02:34:57;;;;;;;21.27;14.97;;;4.20;1.00;;;;;;6309554;28;20323;-55
2022/03/14 02:38:01;;;;;;;19.80;15.27;;;4.00;1.00;;;;;;6311489;28;20297;-53
2022/03/14 02:41:03;;;;;;;24.70;15.77;;;4.30;1.00;;;;;;6308967;28;20229;-55
2022/03/14 02:44:08;;;;;;;26.93;16.13;;;4.10;1.00;;;;;;6298319;28;20391;-54
2022/03/14 02:47:11;;;;;;;20.60;15.70;;;4.30;1.00;;;;;;6289593;28;20236;-54
2022/03/14 02:50:14;;;;;;;22.67;15.53;;;4.30;1.00;;;;;;6305825;28;20375;-54
2022/03/14 02:53:18;;;;;;;22.97;15.77;;;4.20;1.00;;;;;;6305351;28;20366;-54
2022/03/14 02:56:21;;;;;;;23.20;15.90;;;4.10;1.00;;;;;;6313608;28;20311;-54
2022/03/14 02:59:24;;;;;;;24.20;15.47;;;4.30;1.00;;;;;;6305664;28;20831;-54
2022/03/14 03:02:28;;;;;;;21.77;15.17;;;4.10;1.00;;;;;;6303781;28;20350;-53
2022/03/14 03:05:31;;;;;;;22.83;16.07;;;4.20;1.00;;;;;;6297016;28;20245;-55
2022/03/14 03:08:35;;;;;;;23.87;16.53;;;4.20;1.00;;;;;;6295750;28;20301;-54
2022/03/14 03:11:40;;;;;;;24.47;15.40;;;4.10;1.00;;;;;;6305194;28;20720;-54
2022/03/14 03:14:43;;;;;;;23.73;16.40;;;4.10;1.00;;;;;;6297599;28;20315;-53
2022/03/14 03:17:45;;;;;;;25.83;16.23;;;4.20;1.00;;;;;;6308374;28;20245;-54
2022/03/14 03:20:48;;;;;;;24.13;16.40;;;4.00;1.00;;;;;;6305911;28;20239;-53
2022/03/14 03:23:52;;;;;;;22.30;15.80;;;3.90;1.00;;;;;;6304075;28;20322;-54
2022/03/14 03:26:56;;;;;;;22.70;15.27;;;3.90;1.00;;;;;;6312049;28;20258;-56
2022/03/14 03:29:59;;;;;;;27.13;17.20;;;4.10;1.00;;;;;;6305775;28;20240;-54
2022/03/14 03:33:02;;;;;;;23.60;17.30;;;4.20;1.00;;;;;;6301260;28;20283;-54
2022/03/14 03:36:05;;;;;;;23.13;16.40;;;4.20;1.00;;;;;;6293566;28;20268;-58
2022/03/14 03:39:09;;;;;;;26.83;16.93;;;4.00;1.00;;;;;;6300268;28;20352;-54
2022/03/14 03:42:12;;;;;;;25.20;16.60;;;4.10;1.00;;;;;;6303286;28;20495;-55
2022/03/14 03:45:17;;;;;;;21.63;15.73;;;4.00;1.00;;;;;;6304809;28;20315;-54
2022/03/14 03:48:20;;;;;;;19.67;15.63;;;3.90;1.00;;;;;;6305936;28;20719;-55
2022/03/14 03:51:23;;;;;;;28.33;15.93;;;4.00;1.00;;;;;;6296827;28;20912;-54
2022/03/14 03:54:27;;;;;;;26.10;16.07;;;3.60;1.00;;;;;;6298397;28;20338;-55
2022/03/14 03:57:31;;;;;;;24.93;15.90;;;3.90;1.00;;;;;;6308722;28;20306;-54
2022/03/14 04:00:34;;;;;;;21.73;15.40;;;3.70;1.00;;;;;;6304298;28;20417;-55
2022/03/14 04:03:37;;;;;;;26.20;15.53;;;3.90;1.00;;;;;;6301218;28;22013;-53
2022/03/14 04:06:42;;;;;;;25.27;16.03;;;4.00;1.00;;;;;;6304846;28;20338;-55
2022/03/14 04:09:46;;;;;;;22.87;15.70;;;3.70;1.00;;;;;;6302104;28;20749;-53
2022/03/14 04:12:52;;;;;;;20.87;16.17;;;3.80;1.00;;;;;;6289022;28;20283;-56
2022/03/14 04:15:57;;;;;;;21.53;16.00;;;3.60;1.00;;;;;;6309995;28;20233;-54
2022/03/14 04:19:00;;;;;;;26.47;15.90;;;3.80;1.00;;;;;;6302647;28;20323;-55
2022/03/14 04:22:03;;;;;;;21.27;15.23;;;3.80;1.00;;;;;;6309763;28;20280;-54
2022/03/14 04:25:10;;;;;;;22.57;15.57;;;3.50;1.00;;;;;;6305411;28;20237;-54
2022/03/14 04:28:14;;;;;;;23.20;15.57;;;3.80;1.00;;;;;;6301440;28;20453;-54
2022/03/14 04:31:17;;;;;;;24.67;15.90;;;3.50;1.00;;;;;;6303179;28;20274;-54
2022/03/14 04:34:20;;;;;;;23.77;15.63;;;3.70;1.00;;;;;;6298482;28;20829;-54
2022/03/14 04:37:23;;;;;;;23.13;15.40;;;3.80;1.00;;;;;;6297992;28;20306;-57
2022/03/14 04:40:27;;;;;;;23.37;15.83;;;3.60;1.00;;;;;;6296904;28;20286;-54
2022/03/14 04:43:30;;;;;;;23.03;15.77;;;3.50;1.00;;;;;;6310760;28;20335;-55
2022/03/14 04:46:34;;;;;;;22.50;15.97;;;3.50;1.00;;;;;;6305652;28;20309;-54
2022/03/14 04:49:37;;;;;;;25.57;17.37;;;3.70;1.00;;;;;;6284901;28;20898;-55
2022/03/14 04:52:40;;;;;;;23.43;16.43;;;3.40;1.00;;;;;;6299597;28;20395;-54
2022/03/14 04:55:44;;;;;;;28.00;16.13;;;3.40;1.00;;;;;;6309229;28;20243;-54
2022/03/14 04:58:47;;;;;;;23.03;15.57;;;3.30;1.00;;;;;;6292286;28;20232;-54
2022/03/14 05:01:50;;;;;;;20.97;16.27;;;3.50;1.00;;;;;;6293824;28;20619;-54
2022/03/14 05:04:53;;;;;;;28.20;16.53;;;3.40;1.00;;;;;;6299759;28;20342;-54
2022/03/14 05:07:56;;;;;;;24.73;16.33;;;3.60;1.00;;;;;;6300664;28;20294;-53
2022/03/14 05:11:00;;;;;;;24.80;16.33;;;3.20;1.00;;;;;;6300193;28;20231;-54
2022/03/14 05:14:04;;;;;;;22.17;15.27;;;3.40;1.00;;;;;;6299220;28;20308;-55
2022/03/14 05:17:07;;;;;;;23.50;15.47;;;3.40;1.00;;;;;;6296292;28;20721;-54
2022/03/14 05:20:11;;;;;;;25.00;16.60;;;3.20;1.00;;;;;;6300040;28;20229;-53
2022/03/14 05:23:14;;;;;;;25.83;15.90;;;3.10;1.00;;;;;;6303356;28;20294;-54
2022/03/14 05:26:18;;;;;;;24.40;15.73;;;3.30;1.00;;;;;;6302664;28;20442;-55
2022/03/14 05:29:21;;;;;;;26.73;16.67;;;3.30;1.00;;;;;;6297717;28;20248;-53
2022/03/14 05:32:25;;;;;;;26.37;16.97;;;3.40;1.00;;;;;;6299865;28;20630;-54
2022/03/14 05:35:28;;;;;;;23.10;16.47;;;3.40;1.00;;;;;;6294169;28;20226;-54
2022/03/14 05:38:31;;;;;;;26.43;16.93;;;3.20;1.00;;;;;;6294370;28;20245;-54
2022/03/14 05:41:35;;;;;;;24.40;17.03;;;3.10;1.00;;;;;;6304126;28;20779;-53
2022/03/14 05:44:38;;;;;;;29.40;17.10;;;3.20;1.00;;;;;;6296344;28;20534;-54
2022/03/14 05:47:41;;;;;;;24.67;17.43;;;3.20;1.00;;;;;;6295299;28;20249;-55
2022/03/14 05:50:43;;;;;;;23.57;16.50;;;3.40;1.00;;;;;;6306555;28;20236;-54
2022/03/14 05:53:46;;;;;;;23.70;17.27;;;3.10;1.00;;;;;;6296037;28;20316;-54
2022/03/14 05:56:50;;;;;;;28.00;17.30;;;3.30;1.00;;;;;;6306451;28;20237;-53
2022/03/14 05:59:53;;;;;;;24.73;16.20;;;3.00;1.00;;;;;;6291987;28;20240;-53
2022/03/14 06:02:56;;;;;;;29.37;17.40;;;3.20;1.00;;;;;;6300420;28;20601;-54
2022/03/14 06:05:59;;;;;;;26.83;16.90;;;3.40;1.00;;;;;;6302053;28;20237;-55
2022/03/14 06:09:01;;;;;;;25.30;17.50;;;3.20;1.00;;;;;;6299371;28;20315;-55
2022/03/14 06:12:07;;;;;;;28.87;16.70;;;3.20;1.00;;;;;;6301877;28;20239;-55
2022/03/14 06:15:13;;;;;;;26.93;17.33;;;3.40;1.00;;;;;;6298891;28;20320;-54
2022/03/14 06:18:15;;;;;;;26.80;17.77;;;3.60;1.00;;;;;;6302440;28;20228;-54
2022/03/14 06:21:18;;;;;;;36.20;17.73;;;3.60;1.00;;;;;;6296576;28;20350;-55
2022/03/14 06:24:21;;;;;;;27.73;18.20;;;3.50;1.00;;;;;;6302353;28;20237;-54
2022/03/14 06:27:25;;;;;;;33.43;18.10;;;3.50;1.00;;;;;;6302384;28;20291;-54
2022/03/14 06:30:28;;;;;;;34.83;17.90;;;3.40;1.00;;;;;;6297029;28;20521;-55
2022/03/14 06:33:31;;;;;;;37.10;17.90;;;3.40;1.00;;;;;;6300065;28;20236;-54
2022/03/14 06:36:34;;;;;;;24.43;17.33;;;3.70;1.00;;;;;;6304889;28;20618;-53
2022/03/14 06:39:38;;;;;;;30.50;16.80;;;3.60;1.00;;;;;;6292707;28;20331;-54
2022/03/14 06:42:49;;;;;;;31.77;17.77;;;3.60;1.00;;;;;;6305715;28;20243;-55
2022/03/14 06:45:52;;;;;;;28.47;16.83;;;3.70;1.00;;;;;;6303729;28;20371;-53
2022/03/14 06:48:55;;;;;;;26.70;17.93;;;4.20;1.00;;;;;;6295813;28;20229;-55
2022/03/14 06:51:58;;;;;;;57.70;19.87;;;5.20;1.00;;;;;;6301472;28;20315;-54
2022/03/14 06:55:04;;;;;;;38.77;18.03;;;5.60;1.00;;;;;;6299379;28;20237;-55
2022/03/14 06:58:08;;;;;;;40.97;19.23;;;5.50;1.00;;;;;;6304859;28;20378;-54
2022/03/14 07:01:11;;;;;;;34.73;17.77;;;5.30;1.00;;;;;;6302614;28;20260;-54
2022/03/14 07:04:15;;;;;;;34.43;18.07;;;5.60;1.00;;;;;;6294424;28;20320;-54
2022/03/14 07:07:18;;;;;;;32.47;17.97;;;6.00;1.00;;;;;;6293343;28;20319;-55
2022/03/14 07:10:21;;;;;;;28.30;17.53;;;6.20;1.00;;;;;;6298359;28;20841;-55
2022/03/14 07:13:25;;;;;;;28.17;16.80;;;6.10;1.00;;;;;;6296991;28;20249;-54
2022/03/14 07:16:28;;;;;;;27.70;18.03;;;5.70;1.00;;;;;;6305336;28;20566;-55
2022/03/14 07:19:31;;;;;;;26.50;18.23;;;5.80;1.00;;;;;;6296927;28;20275;-55
2022/03/14 07:22:38;;;;;;;23.97;17.13;;;5.70;1.00;;;;;;6300893;28;20603;-55
2022/03/14 07:25:41;;;;;;;24.03;16.87;;;5.60;1.00;;;;;;6304176;28;20310;-53
2022/03/14 07:28:47;;;;;;;23.77;17.00;;;5.60;1.00;;;;;;6303103;28;20276;-54
2022/03/14 07:31:50;;;;;;;27.70;17.63;;;5.70;1.00;;;;;;6309386;28;20315;-54
2022/03/14 07:34:53;;;;;;;28.37;17.47;;;5.70;1.00;;;;;;6303123;28;20240;-54
2022/03/14 07:37:56;;;;;;;31.03;16.53;;;5.60;1.00;;;;;;6298792;28;20286;-55
2022/03/14 07:40:58;;;;;;;28.53;16.80;;;5.60;1.00;;;;;;6297312;28;20256;-54
2022/03/14 07:44:03;;;;;;;23.20;16.30;;;5.90;1.00;;;;;;6303763;28;20252;-54
2022/03/14 07:47:10;;;;;;;25.10;16.40;;;6.20;1.00;;;;;;6309655;28;20299;-53
2022/03/14 07:50:15;;;;;;;26.40;16.40;;;6.20;1.00;;;;;;6295372;28;20280;-54
2022/03/14 07:53:18;;;;;;;26.33;17.30;;;6.00;1.00;;;;;;6297412;28;20630;-54
2022/03/14 07:56:21;;;;;;;21.70;15.43;;;6.10;1.00;;;;;;6311085;28;20333;-54
2022/03/14 07:59:25;;;;;;;24.00;15.63;;;6.40;1.00;;;;;;6303015;28;20309;-55
2022/03/14 08:02:28;;;;;;;21.93;15.87;;;6.40;1.00;;;;;;6304243;28;20229;-55
2022/03/14 08:05:31;;;;;;;22.83;16.13;;;6.30;1.00;;;;;;6309345;28;20432;-55
2022/03/14 08:08:34;;;;;;;23.50;16.53;;;6.40;1.00;;;;;;6294829;28;20363;-54
2022/03/14 08:11:38;;;;;;;19.97;15.67;;;6.50;1.00;;;;;;6310195;28;20244;-54
2022/03/14 08:14:42;;;;;;;21.67;16.17;;;6.60;1.00;;;;;;6304230;28;20699;-54
2022/03/14 08:17:45;;;;;;;20.27;15.37;;;6.80;1.00;;;;;;6302004;28;20982;-55
2022/03/14 08:20:50;;;;;;;20.10;15.73;;;7.20;1.00;;;;;;6305119;28;20366;-54
2022/03/14 08:23:53;;;;;;;22.93;16.23;;;7.00;1.00;;;;;;6301325;28;20373;-55
2022/03/14 08:26:56;;;;;;;17.77;15.23;;;7.10;1.00;;;;;;6301081;28;20306;-54
2022/03/14 08:30:00;;;;;;;16.87;14.60;;;7.30;1.00;;;;;;6299558;28;20784;-54
2022/03/14 08:33:03;;;;;;;23.50;14.77;;;7.50;1.00;;;;;;6302077;28;20505;-53
2022/03/14 08:36:06;;;;;;;21.37;15.00;;;7.60;1.00;;;;;;6307723;28;20331;-53
2022/03/14 08:39:10;;;;;;;17.27;14.77;;;7.90;1.00;;;;;;6300622;28;20381;-54
2022/03/14 08:42:13;;;;;;;18.60;14.77;;;7.80;1.00;;;;;;6302450;28;20846;-55
2022/03/14 08:45:19;;;;;;;18.37;14.47;;;7.90;1.00;;;;;;6296423;28;20333;-54
2022/03/14 08:48:22;;;;;;;22.07;14.77;;;7.90;1.00;;;;;;6304087;28;20591;-56
2022/03/14 08:51:25;;;;;;;22.63;14.27;;;8.00;1.00;;;;;;6307222;28;20354;-56
2022/03/14 08:54:28;;;;;;;15.93;14.13;;;8.10;1.00;;;;;;6295063;28;20324;-54
2022/03/14 08:57:31;;;;;;;18.13;13.73;;;8.30;1.00;;;;;;6305224;28;20433;-54
2022/03/14 09:00:36;;;;;;;18.80;13.97;;;8.40;1.00;;;;;;6300089;28;20386;-55
2022/03/14 09:03:39;;;;;;;19.47;13.40;;;8.60;1.00;;;;;;6301322;28;20240;-54
2022/03/14 09:06:43;;;;;;;18.07;13.57;;;8.70;1.00;;;;;;6308701;28;20516;-55
2022/03/14 09:09:46;;;;;;;18.43;13.63;;;8.70;1.00;;;;;;6288432;28;20310;-54
2022/03/14 09:12:49;;;;;;;15.27;12.87;;;8.90;1.00;;;;;;6299534;28;20232;-55
2022/03/14 09:15:54;;;;;;;15.47;12.90;;;9.00;1.00;;;;;;6300538;28;20316;-55
2022/03/14 09:18:56;;;;;;;17.23;14.03;;;9.20;1.00;;;;;;6294465;28;20562;-54
2022/03/14 09:21:59;;;;;;;15.90;12.53;;;9.30;1.00;;;;;;6301685;28;20247;-55
2022/03/14 09:25:02;;;;;;;15.70;12.87;;;9.40;1.00;;;;;;6299702;28;20262;-54
2022/03/14 09:28:05;;;;;;;24.03;13.37;;;9.60;1.00;;;;;;6305547;28;20243;-56
2022/03/14 09:31:09;;;;;;;16.83;12.73;;;9.60;1.00;;;;;;6302964;28;20377;-54
2022/03/14 09:34:12;;;;;;;17.80;12.97;;;9.60;1.00;;;;;;6293927;28;20233;-55
2022/03/14 09:37:16;;;;;;;15.40;12.53;;;9.80;1.00;;;;;;6304872;28;20307;-55
2022/03/14 09:40:21;;;;;;;18.13;12.77;;;9.90;1.00;;;;;;6290598;28;20245;-55
2022/03/14 09:43:26;;;;;;;14.57;13.03;;;9.90;1.00;;;;;;6294342;28;20790;-56
2022/03/14 09:46:36;;;;;;;14.03;12.00;;;10.00;1.00;;;;;;6306636;28;20529;-54
2022/03/14 09:49:43;;;;;;;17.23;13.20;;;10.10;1.00;;;;;;6289782;28;20240;-54
2022/03/14 09:52:48;;;;;;;17.90;13.10;;;10.20;1.00;;;;;;6296322;28;20234;-55
2022/03/14 09:55:50;;;;;;;15.50;13.17;;;10.20;1.00;;;;;;6306947;28;20305;-55
2022/03/14 09:58:53;;;;;;;18.10;12.83;;;10.20;1.00;;;;;;6300504;28;20247;-56
2022/03/14 10:01:57;;;;;;;15.70;13.00;;;10.30;1.00;;;;;;6303392;28;20486;-55
2022/03/14 10:05:03;;;;;;;15.43;13.43;;;10.30;1.00;;;;;;6301439;28;20236;-55
2022/03/14 10:08:07;;;;;;;14.07;12.53;;;10.30;1.00;;;;;;6298210;28;20784;-55
2022/03/14 10:11:10;;;;;;;13.07;11.73;;;10.40;1.00;;;;;;6298930;28;20271;-56
2022/03/14 10:14:17;;;;;;;12.73;11.63;;;10.60;1.00;;;;;;6297799;28;20318;-54
2022/03/14 10:17:22;;;;;;;13.93;12.53;;;10.80;1.00;;;;;;6300684;28;20301;-55
2022/03/14 10:20:25;;;;;;;14.30;12.90;;;11.00;1.00;;;;;;6303609;28;20685;-55
2022/03/14 10:23:33;;;;;;;12.20;11.10;;;11.20;1.00;;;;;;6298980;28;20240;-57
2022/03/14 10:26:37;;;;;;;15.67;11.53;;;11.10;1.00;;;;;;6302024;28;20713;-55
2022/03/14 10:29:43;;;;;;;15.63;11.73;;;11.30;1.00;;;;;;6296094;28;20718;-55
2022/03/14 10:32:48;;;;;;;16.37;11.83;;;11.30;1.00;;;;;;6297612;28;20241;-55
2022/03/14 10:35:55;;;;;;;13.23;11.90;;;11.50;1.00;;;;;;6298867;28;20370;-54
2022/03/14 10:39:12;;;;;;;12.57;11.50;;;11.80;1.00;;;;;;6293121;28;20232;-55
2022/03/14 10:42:15;;;;;;;14.30;11.17;;;11.90;1.00;;;;;;6297710;28;20763;-56
2022/03/14 10:45:21;;;;;;;12.67;11.30;;;11.90;1.00;;;;;;6291876;28;20236;-56
2022/03/14 10:48:38;;;;;;;15.40;12.20;;;11.90;1.00;;;;;;6301974;28;20395;-56
2022/03/14 10:51:55;;;;;;;13.17;11.77;;;11.90;1.00;;;;;;6297652;28;20374;-54
2022/03/14 10:54:57;;;;;;;14.40;12.83;;;12.10;1.00;;;;;;6302334;28;20703;-55
2022/03/14 10:58:08;;;;;;;13.37;11.97;;;12.10;1.00;;;;;;6305863;28;20247;-55
2022/03/14 11:01:12;;;;;;;12.53;11.33;;;12.20;1.00;;;;;;6303551;28;20328;-54
2022/03/14 11:04:16;;;;;;;12.53;11.33;;;12.20;1.00;;;;;;6300672;28;20228;-54
2022/03/14 11:07:20;;;;;;;14.17;12.77;;;12.30;1.00;;;;;;6305433;28;20282;-55
2022/03/14 11:10:38;;;;;;;12.97;11.27;;;12.60;1.00;;;;;;6293694;28;20254;-55
2022/03/14 11:13:43;;;;;;;13.43;12.10;;;12.70;1.00;;;;;;6309336;28;20318;-56
2022/03/14 11:16:46;;;;;;;12.90;11.60;;;12.90;1.00;;;;;;6298979;28;20282;-56
2022/03/14 11:19:51;;;;;;;12.97;11.80;;;12.90;1.00;;;;;;6296872;28;20408;-55
2022/03/14 11:22:55;;;;;;;12.77;11.47;;;13.00;1.00;;;;;;6300508;28;20479;-57
2022/03/14 11:25:59;;;;;;;14.43;12.90;;;13.10;1.00;;;;;;6305178;28;20607;-54
2022/03/14 11:29:03;;;;;;;14.17;12.77;;;13.00;1.00;;;;;;6307045;28;20794;-55
2022/03/14 11:32:07;;;;;;;15.60;12.63;;;13.00;1.00;;;;;;6294289;28;20692;-55
2022/03/14 11:35:32;;;;;;;14.73;12.87;;;13.10;1.00;;;;;;6306125;28;20578;-56
2022/03/14 11:38:35;;;;;;;13.17;11.87;;;13.30;1.00;;;;;;6297107;28;20652;-54
2022/03/14 11:41:39;;;;;;;12.87;11.43;;;13.40;1.00;;;;;;6303562;28;20244;-56
2022/03/14 11:44:44;;;;;;;12.87;11.63;;;13.40;1.00;;;;;;6296450;28;20407;-55
2022/03/14 11:47:47;;;;;;;12.23;11.00;;;13.30;1.00;;;;;;6306645;28;20240;-55
2022/03/14 11:50:59;;;;;;;13.00;11.73;;;13.30;1.00;;;;;;6292319;28;20401;-54
2022/03/14 11:54:10;;;;;;;11.97;10.77;;;13.50;1.00;;;;;;6303561;28;20285;-55
2022/03/14 11:57:13;;;;;;;12.40;11.20;;;13.80;1.00;;;;;;6305532;28;20224;-55
2022/03/14 12:00:35;;;;;;;13.00;11.80;;;14.00;1.00;;;;;;6301095;28;20228;-56
2022/03/14 12:03:43;;;;;;;11.83;10.80;;;14.20;1.00;;;;;;6296388;28;20316;-56
2022/03/14 12:07:06;;;;;;;12.37;11.03;;;14.30;1.00;;;;;;6297076;28;20231;-54
2022/03/14 12:10:26;;;;;;;12.00;10.80;;;14.40;1.00;;;;;;6306712;28;20271;-54
2022/03/14 12:13:41;;;;;;;12.63;11.33;;;14.50;1.00;;;;;;6302892;28;20233;-55
2022/03/14 12:16:45;;;;;;;13.17;11.80;;;14.30;1.00;;;;;;6306268;28;20493;-58
2022/03/14 12:19:50;;;;;;;13.00;11.90;;;14.20;1.00;;;;;;6303835;28;20236;-55
2022/03/14 12:22:55;;;;;;;12.87;11.60;;;14.00;1.00;;;;;;6301500;28;20328;-54
2022/03/14 12:26:00;;;;;;;11.90;11.00;;;14.10;1.00;;;;;;6309853;28;20361;-56
2022/03/14 12:29:34;;;;;;;13.53;12.13;;;13.90;1.00;;;;;;6299970;28;20232;-58
2022/03/14 12:32:42;;;;;;;14.97;12.77;;;13.90;1.00;;;;;;6292235;28;20244;-57
2022/03/14 12:35:45;;;;;;;13.60;12.17;;;13.80;1.00;;;;;;6307775;28;20790;-56
2022/03/14 12:39:25;;;;;;;12.97;11.70;;;13.60;1.00;;;;;;6298955;28;20371;-56
2022/03/14 12:42:37;;;;;;;15.03;12.13;;;13.60;1.00;;;;;;6299991;28;20264;-56
2022/03/14 12:45:42;;;;;;;13.60;12.20;;;13.70;1.00;;;;;;6306641;28;20740;-54
2022/03/14 12:48:52;;;;;;;13.43;12.23;;;13.70;1.00;;;;;;6297326;28;20386;-55
2022/03/14 12:52:11;;;;;;;13.73;12.43;;;13.50;1.00;;;;;;6295008;28;20492;-56
2022/03/14 12:55:20;;;;;;;12.70;11.67;;;13.50;1.00;;;;;;6300375;28;20283;-56
2022/03/14 12:58:26;;;;;;;13.43;12.23;;;13.60;1.00;;;;;;6299210;28;20722;-56
2022/03/14 13:01:31;;;;;;;19.03;12.87;;;13.70;1.00;;;;;;6303890;28;20871;-55
2022/03/14 13:04:35;;;;;;;12.73;11.60;;;13.80;1.00;;;;;;6302022;28;20549;-55
2022/03/14 13:07:37;;;;;;;14.10;12.80;;;13.70;1.00;;;;;;6303062;28;20249;-56
2022/03/14 13:10:44;;;;;;;15.00;12.27;;;13.60;1.00;;;;;;6297365;28;20265;-56
2022/03/14 13:13:47;;;;;;;14.07;12.63;;;13.70;1.00;;;;;;6302721;28;20381;-56
2022/03/14 13:16:53;;;;;;;13.83;12.40;;;13.70;1.00;;;;;;6307979;28;20239;-55
2022/03/14 13:19:56;;;;;;;18.07;13.07;;;13.60;1.00;;;;;;6305243;28;20237;-57
2022/03/14 13:22:58;;;;;;;14.07;12.80;;;13.40;1.00;;;;;;6298824;28;20236;-56
2022/03/14 13:26:03;;;;;;;14.57;12.17;;;13.30;1.00;;;;;;6302510;28;20259;-54
2022/03/14 13:29:07;;;;;;;12.93;11.77;;;13.40;1.00;;;;;;6289615;28;20327;-57
2022/03/14 13:32:14;;;;;;;13.83;12.33;;;13.30;1.00;;;;;;6301521;28;20233;-54
2022/03/14 13:35:17;;;;;;;13.53;12.27;;;13.40;1.00;;;;;;6303156;28;20313;-54
2022/03/14 13:38:34;;;;;;;16.77;12.67;;;13.50;1.00;;;;;;6299361;28;20257;-54
2022/03/14 13:41:39;;;;;;;13.90;12.43;;;13.40;1.00;;;;;;6305086;28;20279;-54
2022/03/14 13:44:42;;;;;;;13.43;12.00;;;13.50;1.00;;;;;;6302055;28;20236;-56
2022/03/14 13:47:46;;;;;;;14.17;12.67;;;13.60;1.00;;;;;;6302329;28;20229;-56
2022/03/14 13:50:50;;;;;;;14.03;12.80;;;13.90;1.00;;;;;;6298258;28;20247;-57
2022/03/14 13:53:53;;;;;;;14.10;12.70;;;14.10;1.00;;;;;;6306668;28;20790;-55
2022/03/14 13:57:02;;;;;;;15.83;12.63;;;14.00;1.00;;;;;;6305938;28;20224;-55
2022/03/14 14:00:13;;;;;;;13.20;11.93;;;14.00;1.00;;;;;;6300773;28;20224;-55
2022/03/14 14:03:21;;;;;;;13.90;12.60;;;13.90;1.00;;;;;;6298211;28;20234;-56
2022/03/14 14:06:24;;;;;;;14.27;12.57;;;13.90;1.00;;;;;;6305053;28;20258;-54
2022/03/14 14:09:29;;;;;;;14.47;13.00;;;13.80;1.00;;;;;;6298246;28;20244;-55
2022/03/14 14:12:34;;;;;;;17.03;13.10;;;13.90;1.00;;;;;;6303646;28;20270;-54
2022/03/14 14:15:41;;;;;;;14.53;12.80;;;13.90;1.00;;;;;;6306490;28;20721;-56
2022/03/14 14:19:06;;;;;;;13.03;11.83;;;14.00;1.00;;;;;;6294941;28;20228;-55
2022/03/14 14:22:11;;;;;;;14.17;12.77;;;14.20;1.00;;;;;;6294544;28;20317;-55
2022/03/14 14:25:25;;;;;;;15.23;13.03;;;14.10;1.00;;;;;;6302318;28;20260;-54
2022/03/14 14:28:30;;;;;;;17.10;12.67;;;14.20;1.00;;;;;;6297212;28;20245;-57
2022/03/14 14:31:33;;;;;;;16.80;13.23;;;14.20;1.00;;;;;;6284410;28;20244;-54
2022/03/14 14:34:36;;;;;;;17.10;13.17;;;13.90;1.00;;;;;;6299917;28;20335;-57
2022/03/14 14:37:38;;;;;;;15.00;13.40;;;13.80;1.00;;;;;;6295805;28;20229;-56
2022/03/14 14:40:43;;;;;;;17.07;13.73;;;13.90;1.00;;;;;;6296958;28;20252;-54
2022/03/14 14:43:47;;;;;;;14.70;13.20;;;13.90;1.00;;;;;;6302277;28;20413;-56
2022/03/14 14:46:50;;;;;;;14.80;13.10;;;14.00;1.00;;;;;;6300759;28;20340;-55
2022/03/14 14:49:53;;;;;;;16.20;13.23;;;13.90;1.00;;;;;;6298080;28;20782;-56
2022/03/14 14:52:55;;;;;;;14.97;13.43;;;13.80;1.00;;;;;;6306019;28;20575;-54
2022/03/14 14:56:00;;;;;;;16.33;13.97;;;13.60;1.00;;;;;;6306823;28;20411;-54
2022/03/14 14:59:04;;;;;;;21.77;13.93;;;13.60;1.00;;;;;;6299831;28;20252;-56
2022/03/14 15:02:07;;;;;;;15.10;13.40;;;13.70;1.00;;;;;;6307654;28;20229;-55
2022/03/14 15:05:10;;;;;;;16.67;13.63;;;13.60;1.00;;;;;;6289214;28;20881;-55
2022/03/14 15:08:14;;;;;;;14.03;12.83;;;13.50;1.00;;;;;;6296761;28;20315;-54
2022/03/14 15:11:17;;;;;;;17.67;12.73;;;13.50;1.00;;;;;;6304243;28;20229;-55
2022/03/14 15:14:21;;;;;;;15.13;13.57;;;13.40;1.00;;;;;;6296009;28;20832;-54
2022/03/14 15:17:24;;;;;;;16.23;14.27;;;13.30;1.00;;;;;;6295745;28;20232;-55
2022/03/14 15:20:29;;;;;;;16.80;13.87;;;13.00;1.00;;;;;;6287861;28;20746;-54
2022/03/14 15:23:32;;;;;;;17.77;14.80;;;12.80;1.00;;;;;;6294700;28;20322;-56
2022/03/14 15:26:37;;;;;;;14.50;13.10;;;12.70;1.00;;;;;;6294385;28;20329;-55
2022/03/14 15:29:44;;;;;;;14.50;13.00;;;12.70;1.00;;;;;;6294302;28;20233;-55
2022/03/14 15:32:48;;;;;;;18.40;13.17;;;12.60;1.00;;;;;;6292662;28;20712;-56
2022/03/14 15:35:51;;;;;;;17.13;13.80;;;12.60;1.00;;;;;;6297206;28;20817;-56
2022/03/14 15:38:54;;;;;;;16.70;13.73;;;12.50;1.00;;;;;;6296653;28;20790;-55
2022/03/14 15:41:57;;;;;;;15.43;13.80;;;12.40;1.00;;;;;;6305124;28;20520;-56
2022/03/14 15:45:02;;;;;;;16.47;14.33;;;12.40;1.00;;;;;;6305927;28;20382;-63
2022/03/14 15:48:06;;;;;;;15.37;13.87;;;12.40;1.00;;;;;;6304258;28;20240;-56
2022/03/14 15:51:10;;;;;;;19.43;13.83;;;12.40;1.00;;;;;;6304656;28;20249;-54
2022/03/14 15:54:13;;;;;;;20.83;14.43;;;12.20;1.00;;;;;;6305465;28;20510;-55
2022/03/14 15:57:19;;;;;;;17.30;13.83;;;12.20;1.00;;;;;;6303269;28;20373;-56